sensor_id;sensor_type;location;lat;lon;timestamp;pressure;altitude;pressure_sealevel;temperature;humidity
81961;BME280;71462;50.650;6.888;2024-01-25T00:00:41;100961.59;;;6.31;68.65
81961;BME280;71462;50.650;6.888;2024-01-25T00:03:10;100950.22;;;6.83;67.44
81961;BME280;71462;50.650;6.888;2024-01-25T00:05:38;100953.00;;;6.47;68.25
81961;BME280;71462;50.650;6.888;2024-01-25T00:08:05;100958.66;;;6.92;66.17
81961;BME280;71462;50.650;6.888;2024-01-25T00:10:33;100958.34;;;7.23;65.45
81961;BME280;71462;50.650;6.888;2024-01-25T00:13:01;100964.34;;;7.31;65.44
81961;BME280;71462;50.650;6.888;2024-01-25T00:15:29;100949.78;;;7.33;65.06
81961;BME280;71462;50.650;6.888;2024-01-25T00:17:56;100944.94;;;7.42;65.20
81961;BME280;71462;50.650;6.888;2024-01-25T00:20:25;100949.66;;;7.16;65.87
81961;BME280;71462;50.650;6.888;2024-01-25T00:22:53;100950.94;;;7.49;64.11
81961;BME280;71462;50.650;6.888;2024-01-25T00:25:21;100945.47;;;6.97;66.42
81961;BME280;71462;50.650;6.888;2024-01-25T00:27:48;100952.31;;;7.05;66.16
81961;BME280;71462;50.650;6.888;2024-01-25T00:30:16;100954.16;;;7.04;66.04
81961;BME280;71462;50.650;6.888;2024-01-25T00:32:48;100942.75;;;7.39;65.98
81961;BME280;71462;50.650;6.888;2024-01-25T00:35:17;100945.75;;;7.19;66.11
81961;BME280;71462;50.650;6.888;2024-01-25T00:37:47;100944.94;;;7.07;66.67
81961;BME280;71462;50.650;6.888;2024-01-25T00:40:15;100948.81;;;6.81;68.04
81961;BME280;71462;50.650;6.888;2024-01-25T00:42:46;100940.50;;;6.77;67.65
81961;BME280;71462;50.650;6.888;2024-01-25T00:45:19;100952.09;;;7.53;64.83
81961;BME280;71462;50.650;6.888;2024-01-25T00:47:48;100948.47;;;6.89;67.03
81961;BME280;71462;50.650;6.888;2024-01-25T00:50:17;100951.41;;;7.22;65.97
81961;BME280;71462;50.650;6.888;2024-01-25T00:52:49;100954.53;;;7.43;65.53
81961;BME280;71462;50.650;6.888;2024-01-25T00:55:17;100958.69;;;7.50;64.54
81961;BME280;71462;50.650;6.888;2024-01-25T00:57:46;100951.53;;;7.16;66.39
81961;BME280;71462;50.650;6.888;2024-01-25T01:00:14;100958.19;;;6.83;67.57
81961;BME280;71462;50.650;6.888;2024-01-25T01:02:43;100965.81;;;6.91;67.27
81961;BME280;71462;50.650;6.888;2024-01-25T01:05:12;100970.81;;;7.35;65.87
81961;BME280;71462;50.650;6.888;2024-01-25T01:07:41;100962.81;;;7.00;66.51
81961;BME280;71462;50.650;6.888;2024-01-25T01:10:10;100962.69;;;6.95;66.42
81961;BME280;71462;50.650;6.888;2024-01-25T01:12:38;100971.53;;;6.65;67.53
81961;BME280;71462;50.650;6.888;2024-01-25T01:15:06;100962.16;;;6.51;68.06
81961;BME280;71462;50.650;6.888;2024-01-25T01:17:34;100964.09;;;6.44;68.04
81961;BME280;71462;50.650;6.888;2024-01-25T01:20:01;100963.84;;;6.75;67.10
81961;BME280;71462;50.650;6.888;2024-01-25T01:22:29;100955.56;;;6.53;67.65
81961;BME280;71462;50.650;6.888;2024-01-25T01:24:57;100961.84;;;6.71;67.38
81961;BME280;71462;50.650;6.888;2024-01-25T01:27:26;100971.81;;;6.75;66.66
81961;BME280;71462;50.650;6.888;2024-01-25T01:29:53;100980.16;;;7.02;65.90
81961;BME280;71462;50.650;6.888;2024-01-25T01:32:21;100965.75;;;6.56;67.84
81961;BME280;71462;50.650;6.888;2024-01-25T01:34:49;100981.19;;;6.48;68.18
81961;BME280;71462;50.650;6.888;2024-01-25T01:37:16;100991.03;;;6.29;68.60
81961;BME280;71462;50.650;6.888;2024-01-25T01:39:44;100982.75;;;6.67;67.06
81961;BME280;71462;50.650;6.888;2024-01-25T01:42:12;100970.66;;;6.83;66.22
81961;BME280;71462;50.650;6.888;2024-01-25T01:44:41;100988.88;;;6.68;66.36
81961;BME280;71462;50.650;6.888;2024-01-25T01:47:08;100989.66;;;6.56;67.75
81961;BME280;71462;50.650;6.888;2024-01-25T01:49:36;100987.72;;;6.15;68.22
81961;BME280;71462;50.650;6.888;2024-01-25T01:52:06;100978.03;;;6.39;68.11
81961;BME280;71462;50.650;6.888;2024-01-25T01:54:34;100991.91;;;6.41;68.50
81961;BME280;71462;50.650;6.888;2024-01-25T01:57:02;100996.59;;;6.57;67.67
81961;BME280;71462;50.650;6.888;2024-01-25T01:59:30;100993.44;;;6.79;66.44
81961;BME280;71462;50.650;6.888;2024-01-25T02:01:59;101003.06;;;7.03;65.72
81961;BME280;71462;50.650;6.888;2024-01-25T02:04:27;100993.78;;;6.82;66.17
81961;BME280;71462;50.650;6.888;2024-01-25T02:06:55;100992.34;;;7.33;64.85
81961;BME280;71462;50.650;6.888;2024-01-25T02:09:23;100992.78;;;7.18;65.13
81961;BME280;71462;50.650;6.888;2024-01-25T02:11:59;100995.88;;;6.92;66.64
81961;BME280;71462;50.650;6.888;2024-01-25T02:14:27;100993.44;;;7.02;65.31
81961;BME280;71462;50.650;6.888;2024-01-25T02:16:54;100983.16;;;6.52;67.44
81961;BME280;71462;50.650;6.888;2024-01-25T02:19:23;100990.72;;;6.01;69.33
81961;BME280;71462;50.650;6.888;2024-01-25T02:21:53;100992.06;;;5.91;70.76
81961;BME280;71462;50.650;6.888;2024-01-25T02:24:23;100998.72;;;5.82;70.32
81961;BME280;71462;50.650;6.888;2024-01-25T02:26:50;100992.88;;;6.10;69.28
81961;BME280;71462;50.650;6.888;2024-01-25T02:29:20;100993.47;;;6.60;67.03
81961;BME280;71462;50.650;6.888;2024-01-25T02:31:47;100999.59;;;6.31;67.88
81961;BME280;71462;50.650;6.888;2024-01-25T02:34:15;101003.97;;;6.55;67.25
81961;BME280;71462;50.650;6.888;2024-01-25T02:36:43;101004.66;;;6.33;68.20
81961;BME280;71462;50.650;6.888;2024-01-25T02:39:10;101000.53;;;6.67;67.65
81961;BME280;71462;50.650;6.888;2024-01-25T02:41:39;101000.72;;;6.53;68.25
81961;BME280;71462;50.650;6.888;2024-01-25T02:44:08;101003.41;;;6.17;68.87
81961;BME280;71462;50.650;6.888;2024-01-25T02:46:35;101004.22;;;6.66;68.10
81961;BME280;71462;50.650;6.888;2024-01-25T02:49:04;101012.50;;;6.09;69.45
81961;BME280;71462;50.650;6.888;2024-01-25T02:51:32;101011.59;;;6.15;69.26
81961;BME280;71462;50.650;6.888;2024-01-25T02:54:00;101008.06;;;6.03;70.15
81961;BME280;71462;50.650;6.888;2024-01-25T02:56:28;101008.94;;;6.34;69.18
81961;BME280;71462;50.650;6.888;2024-01-25T02:59:01;101014.25;;;6.34;69.29
81961;BME280;71462;50.650;6.888;2024-01-25T03:01:37;101015.75;;;5.93;70.60
81961;BME280;71462;50.650;6.888;2024-01-25T03:04:05;101013.28;;;6.46;69.38
81961;BME280;71462;50.650;6.888;2024-01-25T03:06:33;101020.97;;;6.96;67.63
81961;BME280;71462;50.650;6.888;2024-01-25T03:09:01;101014.59;;;6.85;67.31
81961;BME280;71462;50.650;6.888;2024-01-25T03:11:30;101027.78;;;7.04;66.91
81961;BME280;71462;50.650;6.888;2024-01-25T03:13:58;101036.97;;;7.19;66.08
81961;BME280;71462;50.650;6.888;2024-01-25T03:16:27;101030.44;;;7.04;66.20
81961;BME280;71462;50.650;6.888;2024-01-25T03:18:55;101022.94;;;7.01;66.69
81961;BME280;71462;50.650;6.888;2024-01-25T03:21:23;101030.53;;;6.55;68.69
81961;BME280;71462;50.650;6.888;2024-01-25T03:23:51;101029.97;;;6.17;70.06
81961;BME280;71462;50.650;6.888;2024-01-25T03:26:18;101027.09;;;6.18;70.62
81961;BME280;71462;50.650;6.888;2024-01-25T03:28:46;101022.31;;;6.09;70.61
81961;BME280;71462;50.650;6.888;2024-01-25T03:31:14;101032.06;;;6.63;69.05
81961;BME280;71462;50.650;6.888;2024-01-25T03:33:43;101023.88;;;6.65;68.92
81961;BME280;71462;50.650;6.888;2024-01-25T03:36:13;101030.09;;;6.40;69.59
81961;BME280;71462;50.650;6.888;2024-01-25T03:38:41;101026.63;;;7.00;67.28
81961;BME280;71462;50.650;6.888;2024-01-25T03:41:08;101031.66;;;6.78;67.48
81961;BME280;71462;50.650;6.888;2024-01-25T03:43:36;101030.84;;;6.77;67.57
81961;BME280;71462;50.650;6.888;2024-01-25T03:46:10;101033.88;;;6.33;69.28
81961;BME280;71462;50.650;6.888;2024-01-25T03:48:38;101031.75;;;6.41;69.46
81961;BME280;71462;50.650;6.888;2024-01-25T03:51:07;101036.31;;;5.97;71.01
81961;BME280;71462;50.650;6.888;2024-01-25T03:53:34;101031.47;;;6.61;68.58
81961;BME280;71462;50.650;6.888;2024-01-25T03:56:02;101028.56;;;6.81;67.33
81961;BME280;71462;50.650;6.888;2024-01-25T03:58:30;101018.75;;;6.33;69.45
81961;BME280;71462;50.650;6.888;2024-01-25T04:00:58;101018.03;;;6.44;69.04
81961;BME280;71462;50.650;6.888;2024-01-25T04:03:26;101030.88;;;6.11;70.12
81961;BME280;71462;50.650;6.888;2024-01-25T04:05:54;101016.47;;;6.18;70.35
81961;BME280;71462;50.650;6.888;2024-01-25T04:08:23;101002.22;;;6.49;68.71
81961;BME280;71462;50.650;6.888;2024-01-25T04:10:50;101014.22;;;6.22;69.96
81961;BME280;71462;50.650;6.888;2024-01-25T04:13:18;101017.50;;;5.99;70.73
81961;BME280;71462;50.650;6.888;2024-01-25T04:15:46;101008.72;;;6.17;69.82
81961;BME280;71462;50.650;6.888;2024-01-25T04:18:13;101032.00;;;6.21;69.46
81961;BME280;71462;50.650;6.888;2024-01-25T04:20:43;101031.44;;;6.49;68.16
81961;BME280;71462;50.650;6.888;2024-01-25T04:23:11;101027.53;;;6.82;66.64
81961;BME280;71462;50.650;6.888;2024-01-25T04:25:41;101038.91;;;6.71;66.47
81961;BME280;71462;50.650;6.888;2024-01-25T04:28:09;101034.56;;;6.76;67.25
81961;BME280;71462;50.650;6.888;2024-01-25T04:30:36;101037.34;;;6.81;66.34
81961;BME280;71462;50.650;6.888;2024-01-25T04:33:04;101046.50;;;6.97;65.92
81961;BME280;71462;50.650;6.888;2024-01-25T04:35:33;101049.81;;;7.22;65.19
81961;BME280;71462;50.650;6.888;2024-01-25T04:38:01;101059.09;;;6.90;65.48
81961;BME280;71462;50.650;6.888;2024-01-25T04:40:28;101054.09;;;7.23;64.59
81961;BME280;71462;50.650;6.888;2024-01-25T04:42:58;101063.72;;;6.95;66.16
81961;BME280;71462;50.650;6.888;2024-01-25T04:45:26;101065.88;;;6.74;66.45
81961;BME280;71462;50.650;6.888;2024-01-25T04:47:53;101061.81;;;7.13;65.83
81961;BME280;71462;50.650;6.888;2024-01-25T04:50:21;101068.44;;;7.34;64.08
81961;BME280;71462;50.650;6.888;2024-01-25T04:52:49;101073.38;;;7.07;64.57
81961;BME280;71462;50.650;6.888;2024-01-25T04:55:17;101074.22;;;7.31;64.85
81961;BME280;71462;50.650;6.888;2024-01-25T04:57:46;101075.53;;;7.40;63.74
81961;BME280;71462;50.650;6.888;2024-01-25T05:00:20;101071.78;;;7.30;64.38
81961;BME280;71462;50.650;6.888;2024-01-25T05:02:48;101073.34;;;6.47;67.20
81961;BME280;71462;50.650;6.888;2024-01-25T05:05:16;101066.56;;;6.33;68.02
81961;BME280;71462;50.650;6.888;2024-01-25T05:07:44;101065.69;;;6.69;66.34
81961;BME280;71462;50.650;6.888;2024-01-25T05:10:12;101056.97;;;6.50;66.25
81961;BME280;71462;50.650;6.888;2024-01-25T05:12:40;101051.97;;;6.42;66.91
81961;BME280;71462;50.650;6.888;2024-01-25T05:15:08;101046.75;;;6.66;66.29
81961;BME280;71462;50.650;6.888;2024-01-25T05:17:37;101053.69;;;6.67;65.66
81961;BME280;71462;50.650;6.888;2024-01-25T05:20:07;101051.22;;;6.83;65.42
81961;BME280;71462;50.650;6.888;2024-01-25T05:22:35;101060.22;;;6.52;65.98
81961;BME280;71462;50.650;6.888;2024-01-25T05:25:07;101064.63;;;6.58;64.64
81961;BME280;71462;50.650;6.888;2024-01-25T05:27:35;101061.13;;;6.46;66.04
81961;BME280;71462;50.650;6.888;2024-01-25T05:30:04;101069.81;;;6.35;65.88
81961;BME280;71462;50.650;6.888;2024-01-25T05:32:32;101064.56;;;6.47;65.64
81961;BME280;71462;50.650;6.888;2024-01-25T05:35:01;101062.88;;;6.52;64.71
81961;BME280;71462;50.650;6.888;2024-01-25T05:37:29;101068.31;;;6.03;67.03
81961;BME280;71462;50.650;6.888;2024-01-25T05:39:57;101074.47;;;6.21;66.40
81961;BME280;71462;50.650;6.888;2024-01-25T05:42:24;101077.50;;;6.25;65.14
81961;BME280;71462;50.650;6.888;2024-01-25T05:44:52;101074.25;;;6.41;64.75
81961;BME280;71462;50.650;6.888;2024-01-25T05:47:20;101076.22;;;6.27;64.70
81961;BME280;71462;50.650;6.888;2024-01-25T05:49:47;101084.69;;;6.18;65.30
81961;BME280;71462;50.650;6.888;2024-01-25T05:52:17;101079.06;;;5.40;67.77
81961;BME280;71462;50.650;6.888;2024-01-25T05:54:44;101079.06;;;5.40;67.94
81961;BME280;71462;50.650;6.888;2024-01-25T05:57:12;101082.09;;;5.18;68.75
81961;BME280;71462;50.650;6.888;2024-01-25T05:59:40;101089.16;;;4.99;69.03
81961;BME280;71462;50.650;6.888;2024-01-25T06:02:09;101083.50;;;4.89;70.46
81961;BME280;71462;50.650;6.888;2024-01-25T06:04:36;101086.28;;;4.63;71.37
81961;BME280;71462;50.650;6.888;2024-01-25T06:07:04;101081.59;;;4.65;70.51
81961;BME280;71462;50.650;6.888;2024-01-25T06:09:34;101079.06;;;4.25;72.58
81961;BME280;71462;50.650;6.888;2024-01-25T06:12:01;101078.84;;;4.33;72.41
81961;BME280;71462;50.650;6.888;2024-01-25T06:14:31;101088.31;;;4.61;71.10
81961;BME280;71462;50.650;6.888;2024-01-25T06:16:58;101086.59;;;4.86;69.23
81961;BME280;71462;50.650;6.888;2024-01-25T06:19:26;101095.72;;;4.90;69.62
81961;BME280;71462;50.650;6.888;2024-01-25T06:21:54;101095.94;;;4.37;71.49
81961;BME280;71462;50.650;6.888;2024-01-25T06:24:22;101087.03;;;4.12;72.23
81961;BME280;71462;50.650;6.888;2024-01-25T06:26:52;101093.34;;;4.18;71.36
81961;BME280;71462;50.650;6.888;2024-01-25T06:29:20;101096.19;;;4.23;72.12
81961;BME280;71462;50.650;6.888;2024-01-25T06:31:47;101104.53;;;4.06;72.22
81961;BME280;71462;50.650;6.888;2024-01-25T06:34:16;101104.38;;;3.95;73.29
81961;BME280;71462;50.650;6.888;2024-01-25T06:36:43;101107.84;;;3.56;74.01
81961;BME280;71462;50.650;6.888;2024-01-25T06:39:11;101111.91;;;3.78;73.70
81961;BME280;71462;50.650;6.888;2024-01-25T06:41:38;101113.72;;;3.44;74.63
81961;BME280;71462;50.650;6.888;2024-01-25T06:44:07;101111.72;;;3.53;74.72
81961;BME280;71462;50.650;6.888;2024-01-25T06:46:42;101119.22;;;3.36;75.02
81961;BME280;71462;50.650;6.888;2024-01-25T06:49:10;101118.00;;;3.32;74.76
81961;BME280;71462;50.650;6.888;2024-01-25T06:51:37;101112.50;;;3.21;75.36
81961;BME280;71462;50.650;6.888;2024-01-25T06:54:05;101113.13;;;3.69;74.30
81961;BME280;71462;50.650;6.888;2024-01-25T06:56:32;101115.59;;;3.64;73.57
81961;BME280;71462;50.650;6.888;2024-01-25T06:59:01;101119.41;;;3.35;74.45
81961;BME280;71462;50.650;6.888;2024-01-25T07:01:30;101119.41;;;3.28;75.68
81961;BME280;71462;50.650;6.888;2024-01-25T07:03:59;101125.75;;;3.60;73.90
81961;BME280;71462;50.650;6.888;2024-01-25T07:06:27;101121.03;;;4.15;70.84
81961;BME280;71462;50.650;6.888;2024-01-25T07:08:55;101119.97;;;4.42;69.36
81961;BME280;71462;50.650;6.888;2024-01-25T07:11:23;101127.22;;;4.67;68.92
81961;BME280;71462;50.650;6.888;2024-01-25T07:13:51;101118.19;;;4.81;67.67
81961;BME280;71462;50.650;6.888;2024-01-25T07:16:18;101126.94;;;4.10;69.63
81961;BME280;71462;50.650;6.888;2024-01-25T07:18:48;101133.22;;;4.29;70.61
81961;BME280;71462;50.650;6.888;2024-01-25T07:21:17;101134.84;;;4.37;69.24
81961;BME280;71462;50.650;6.888;2024-01-25T07:23:44;101135.59;;;4.57;68.73
81961;BME280;71462;50.650;6.888;2024-01-25T07:26:16;101134.34;;;4.66;67.76
81961;BME280;71462;50.650;6.888;2024-01-25T07:28:44;101134.66;;;5.28;65.81
81961;BME280;71462;50.650;6.888;2024-01-25T07:31:12;101130.19;;;5.53;64.41
81961;BME280;71462;50.650;6.888;2024-01-25T07:33:40;101131.84;;;5.73;62.86
81961;BME280;71462;50.650;6.888;2024-01-25T07:36:09;101138.41;;;5.95;61.93
81961;BME280;71462;50.650;6.888;2024-01-25T07:38:36;101134.03;;;5.82;62.40
81961;BME280;71462;50.650;6.888;2024-01-25T07:41:04;101135.38;;;5.91;61.94
81961;BME280;71462;50.650;6.888;2024-01-25T07:43:32;101134.81;;;6.08;61.16
81961;BME280;71462;50.650;6.888;2024-01-25T07:45:59;101140.41;;;6.24;59.80
81961;BME280;71462;50.650;6.888;2024-01-25T07:48:27;101132.94;;;5.65;61.48
81961;BME280;71462;50.650;6.888;2024-01-25T07:50:54;101140.03;;;5.71;61.35
81961;BME280;71462;50.650;6.888;2024-01-25T07:53:24;101144.50;;;5.77;60.91
81961;BME280;71462;50.650;6.888;2024-01-25T07:55:52;101140.84;;;5.96;60.42
81961;BME280;71462;50.650;6.888;2024-01-25T07:58:19;101136.31;;;5.54;61.29
81961;BME280;71462;50.650;6.888;2024-01-25T08:00:47;101141.09;;;4.62;64.69
81961;BME280;71462;50.650;6.888;2024-01-25T08:03:16;101135.69;;;4.04;68.47
81961;BME280;71462;50.650;6.888;2024-01-25T08:05:44;101129.94;;;3.08;72.47
81961;BME280;71462;50.650;6.888;2024-01-25T08:08:17;101137.34;;;3.86;70.43
81961;BME280;71462;50.650;6.888;2024-01-25T08:10:46;101138.84;;;4.59;67.71
81961;BME280;71462;50.650;6.888;2024-01-25T08:13:16;101136.38;;;4.64;67.49
81961;BME280;71462;50.650;6.888;2024-01-25T08:15:44;101139.91;;;4.96;66.23
81961;BME280;71462;50.650;6.888;2024-01-25T08:18:12;101139.91;;;4.96;66.48
81961;BME280;71462;50.650;6.888;2024-01-25T08:20:40;101137.84;;;5.05;66.49
81961;BME280;71462;50.650;6.888;2024-01-25T08:23:08;101133.78;;;5.02;66.60
81961;BME280;71462;50.650;6.888;2024-01-25T08:25:36;101140.78;;;4.90;67.12
81961;BME280;71462;50.650;6.888;2024-01-25T08:28:05;101141.94;;;5.01;66.78
81961;BME280;71462;50.650;6.888;2024-01-25T08:30:33;101137.31;;;4.90;67.44
81961;BME280;71462;50.650;6.888;2024-01-25T08:33:01;101136.50;;;4.89;67.28
81961;BME280;71462;50.650;6.888;2024-01-25T08:35:29;101134.91;;;5.20;66.55
81961;BME280;71462;50.650;6.888;2024-01-25T08:37:58;101140.84;;;5.72;64.85
81961;BME280;71462;50.650;6.888;2024-01-25T08:40:25;101139.13;;;6.09;63.60
81961;BME280;71462;50.650;6.888;2024-01-25T08:42:56;101131.78;;;5.86;63.26
81961;BME280;71462;50.650;6.888;2024-01-25T08:45:25;101128.75;;;5.82;63.44
81961;BME280;71462;50.650;6.888;2024-01-25T08:47:53;101132.03;;;6.46;62.37
81961;BME280;71462;50.650;6.888;2024-01-25T08:50:22;101134.34;;;6.72;61.38
81961;BME280;71462;50.650;6.888;2024-01-25T08:52:53;101142.41;;;6.47;61.67
81961;BME280;71462;50.650;6.888;2024-01-25T08:55:20;101138.69;;;6.85;59.92
81961;BME280;71462;50.650;6.888;2024-01-25T08:57:49;101132.00;;;6.64;61.28
81961;BME280;71462;50.650;6.888;2024-01-25T09:00:17;101128.44;;;6.88;60.86
81961;BME280;71462;50.650;6.888;2024-01-25T09:02:46;101129.41;;;6.39;62.42
81961;BME280;71462;50.650;6.888;2024-01-25T09:05:14;101134.00;;;6.50;61.82
81961;BME280;71462;50.650;6.888;2024-01-25T09:07:42;101125.50;;;6.78;61.52
81961;BME280;71462;50.650;6.888;2024-01-25T09:10:10;101118.16;;;6.44;61.94
81961;BME280;71462;50.650;6.888;2024-01-25T09:12:40;101123.91;;;7.07;60.72
81961;BME280;71462;50.650;6.888;2024-01-25T09:15:09;101113.59;;;6.81;61.73
81961;BME280;71462;50.650;6.888;2024-01-25T09:17:37;101107.28;;;6.94;60.79
81961;BME280;71462;50.650;6.888;2024-01-25T09:20:07;101099.19;;;7.18;61.25
81961;BME280;71462;50.650;6.888;2024-01-25T09:22:35;101106.94;;;7.85;57.81
81961;BME280;71462;50.650;6.888;2024-01-25T09:25:04;101118.84;;;7.17;59.29
81961;BME280;71462;50.650;6.888;2024-01-25T09:27:35;101135.34;;;6.41;62.67
81961;BME280;71462;50.650;6.888;2024-01-25T09:30:04;101144.94;;;6.42;62.61
81961;BME280;71462;50.650;6.888;2024-01-25T09:32:33;101145.00;;;6.54;61.82
81961;BME280;71462;50.650;6.888;2024-01-25T09:35:00;101137.69;;;6.49;62.91
81961;BME280;71462;50.650;6.888;2024-01-25T09:37:29;101141.44;;;6.60;61.97
81961;BME280;71462;50.650;6.888;2024-01-25T09:39:58;101146.50;;;6.98;61.67
81961;BME280;71462;50.650;6.888;2024-01-25T09:42:26;101149.13;;;6.32;62.99
81961;BME280;71462;50.650;6.888;2024-01-25T09:44:54;101156.00;;;6.14;63.78
81961;BME280;71462;50.650;6.888;2024-01-25T09:47:22;101154.94;;;5.72;63.98
81961;BME280;71462;50.650;6.888;2024-01-25T09:49:49;101156.34;;;5.75;64.57
81961;BME280;71462;50.650;6.888;2024-01-25T09:52:19;101159.22;;;5.98;63.88
81961;BME280;71462;50.650;6.888;2024-01-25T09:54:53;101169.56;;;5.81;65.00
81961;BME280;71462;50.650;6.888;2024-01-25T09:57:24;101162.38;;;6.07;64.01
81961;BME280;71462;50.650;6.888;2024-01-25T09:59:55;101161.81;;;6.84;61.69
81961;BME280;71462;50.650;6.888;2024-01-25T10:02:22;101159.50;;;7.06;60.55
81961;BME280;71462;50.650;6.888;2024-01-25T10:04:50;101152.09;;;7.08;60.19
81961;BME280;71462;50.650;6.888;2024-01-25T10:07:37;101137.59;;;7.88;58.05
81961;BME280;71462;50.650;6.888;2024-01-25T10:10:08;101153.22;;;7.96;56.85
81961;BME280;71462;50.650;6.888;2024-01-25T10:12:36;101150.56;;;7.96;57.36
81961;BME280;71462;50.650;6.888;2024-01-25T10:15:05;101153.22;;;7.96;56.75
81961;BME280;71462;50.650;6.888;2024-01-25T10:17:33;101153.19;;;7.72;57.34
81961;BME280;71462;50.650;6.888;2024-01-25T10:20:21;101156.81;;;8.01;55.93
81961;BME280;71462;50.650;6.888;2024-01-25T10:22:51;101160.22;;;7.55;56.98
81961;BME280;71462;50.650;6.888;2024-01-25T10:25:25;101157.19;;;7.51;58.16
81961;BME280;71462;50.650;6.888;2024-01-25T10:27:53;101160.66;;;7.82;56.73
81961;BME280;71462;50.650;6.888;2024-01-25T10:30:22;101151.72;;;8.23;55.67
81961;BME280;71462;50.650;6.888;2024-01-25T10:32:51;101154.41;;;8.00;55.56
81961;BME280;71462;50.650;6.888;2024-01-25T10:35:20;101148.13;;;8.29;55.12
81961;BME280;71462;50.650;6.888;2024-01-25T10:37:51;101149.13;;;8.63;53.85
81961;BME280;71462;50.650;6.888;2024-01-25T10:40:19;101153.47;;;8.81;52.85
81961;BME280;71462;50.650;6.888;2024-01-25T10:42:48;101143.38;;;8.31;54.18
81961;BME280;71462;50.650;6.888;2024-01-25T10:45:18;101144.47;;;8.70;52.81
81961;BME280;71462;50.650;6.888;2024-01-25T10:47:48;101134.00;;;8.81;52.37
81961;BME280;71462;50.650;6.888;2024-01-25T10:50:16;101140.81;;;9.17;51.26
81961;BME280;71462;50.650;6.888;2024-01-25T10:52:44;101145.44;;;8.93;52.15
81961;BME280;71462;50.650;6.888;2024-01-25T10:55:14;101136.09;;;9.19;51.50
81961;BME280;71462;50.650;6.888;2024-01-25T10:57:44;101133.53;;;9.12;51.65
81961;BME280;71462;50.650;6.888;2024-01-25T11:00:15;101132.16;;;8.81;51.99
81961;BME280;71462;50.650;6.888;2024-01-25T11:02:44;101122.47;;;8.92;52.07
81961;BME280;71462;50.650;6.888;2024-01-25T11:05:14;101108.69;;;9.23;50.68
81961;BME280;71462;50.650;6.888;2024-01-25T11:07:43;101094.81;;;8.81;51.67
81961;BME280;71462;50.650;6.888;2024-01-25T11:10:14;101087.09;;;9.58;51.06
81961;BME280;71462;50.650;6.888;2024-01-25T11:12:49;101086.28;;;9.58;49.91
81961;BME280;71462;50.650;6.888;2024-01-25T11:15:21;101098.41;;;9.99;48.68
81961;BME280;71462;50.650;6.888;2024-01-25T11:17:53;101098.84;;;10.13;48.43
81961;BME280;71462;50.650;6.888;2024-01-25T11:20:22;101099.72;;;9.01;51.25
81961;BME280;71462;50.650;6.888;2024-01-25T11:22:57;101086.66;;;10.00;49.33
81961;BME280;71462;50.650;6.888;2024-01-25T11:25:29;101088.56;;;9.66;49.25
81961;BME280;71462;50.650;6.888;2024-01-25T11:27:58;101085.13;;;10.04;47.95
81961;BME280;71462;50.650;6.888;2024-01-25T11:30:29;101078.84;;;10.15;47.95
81961;BME280;71462;50.650;6.888;2024-01-25T11:32:57;101077.47;;;11.05;46.48
81961;BME280;71462;50.650;6.888;2024-01-25T11:35:25;101080.28;;;10.93;45.10
81961;BME280;71462;50.650;6.888;2024-01-25T11:37:53;101074.72;;;9.52;48.11
81961;BME280;71462;50.650;6.888;2024-01-25T11:40:21;101072.91;;;9.07;48.11
81961;BME280;71462;50.650;6.888;2024-01-25T11:42:50;101069.84;;;9.83;48.05
81961;BME280;71462;50.650;6.888;2024-01-25T11:45:20;101059.69;;;10.01;47.00
81961;BME280;71462;50.650;6.888;2024-01-25T11:47:51;101058.78;;;10.13;46.46
81961;BME280;71462;50.650;6.888;2024-01-25T11:50:19;101057.69;;;10.79;46.12
81961;BME280;71462;50.650;6.888;2024-01-25T11:52:49;101046.38;;;11.63;42.74
81961;BME280;71462;50.650;6.888;2024-01-25T11:55:17;101051.78;;;11.68;41.89
81961;BME280;71462;50.650;6.888;2024-01-25T11:57:44;101045.66;;;11.78;43.31
81961;BME280;71462;50.650;6.888;2024-01-25T12:00:14;101044.22;;;10.96;43.38
81961;BME280;71462;50.650;6.888;2024-01-25T12:02:43;101048.94;;;10.40;45.46
81961;BME280;71462;50.650;6.888;2024-01-25T12:05:13;101043.75;;;9.90;46.65
81961;BME280;71462;50.650;6.888;2024-01-25T12:07:41;101027.69;;;10.50;45.14
81961;BME280;71462;50.650;6.888;2024-01-25T12:10:15;101030.06;;;10.25;45.02
81961;BME280;71462;50.650;6.888;2024-01-25T12:12:43;101018.63;;;11.42;43.37
81961;BME280;71462;50.650;6.888;2024-01-25T12:15:11;101019.53;;;11.58;41.90
81961;BME280;71462;50.650;6.888;2024-01-25T12:17:39;101019.06;;;11.29;43.14
81961;BME280;71462;50.650;6.888;2024-01-25T12:20:08;101019.00;;;10.16;43.85
81961;BME280;71462;50.650;6.888;2024-01-25T12:22:40;101009.00;;;11.09;43.29
81961;BME280;71462;50.650;6.888;2024-01-25T12:25:08;101001.69;;;11.32;42.17
81961;BME280;71462;50.650;6.888;2024-01-25T12:27:39;100999.63;;;11.07;42.72
81961;BME280;71462;50.650;6.888;2024-01-25T12:30:08;101000.69;;;11.06;43.10
81961;BME280;71462;50.650;6.888;2024-01-25T12:32:36;101001.09;;;10.39;44.53
81961;BME280;71462;50.650;6.888;2024-01-25T12:35:05;100997.81;;;10.31;44.15
81961;BME280;71462;50.650;6.888;2024-01-25T12:37:37;100981.97;;;9.26;47.73
81961;BME280;71462;50.650;6.888;2024-01-25T12:40:07;100981.78;;;10.10;45.90
81961;BME280;71462;50.650;6.888;2024-01-25T12:42:38;100986.88;;;9.51;47.18
81961;BME280;71462;50.650;6.888;2024-01-25T12:45:09;100980.59;;;9.23;48.21
81961;BME280;71462;50.650;6.888;2024-01-25T12:47:36;100977.28;;;9.33;47.54
81961;BME280;71462;50.650;6.888;2024-01-25T12:50:05;100976.06;;;10.01;46.63
81961;BME280;71462;50.650;6.888;2024-01-25T12:52:33;100973.13;;;10.24;45.45
81961;BME280;71462;50.650;6.888;2024-01-25T12:55:01;100972.59;;;10.76;44.02
81961;BME280;71462;50.650;6.888;2024-01-25T12:57:31;100982.56;;;10.54;43.85
81961;BME280;71462;50.650;6.888;2024-01-25T12:59:59;100983.59;;;10.53;44.41
81961;BME280;71462;50.650;6.888;2024-01-25T13:02:27;100992.88;;;10.23;44.58
81961;BME280;71462;50.650;6.888;2024-01-25T13:04:58;100987.19;;;10.15;45.83
81961;BME280;71462;50.650;6.888;2024-01-25T13:07:27;100988.97;;;10.53;45.26